createdAt,value
2023-10-29T00:04:36.904Z,10.38
2023-10-29T00:09:37.817Z,10.40
2023-10-29T00:14:38.638Z,10.50
2023-10-29T00:19:40.919Z,10.55
2023-10-29T00:24:41.718Z,10.57
2023-10-29T00:29:42.878Z,10.62
2023-10-29T00:34:45.148Z,10.62
2023-10-29T00:39:46.348Z,10.64
2023-10-29T00:44:48.340Z,10.66
2023-10-29T00:49:50.924Z,10.67
2023-10-29T00:54:51.839Z,10.72
2023-10-29T00:59:53.321Z,10.79
2023-10-29T01:04:55.589Z,10.80
2023-10-29T01:09:56.818Z,10.86
2023-10-29T01:14:57.697Z,10.90
2023-10-29T01:20:00.992Z,10.94
2023-10-29T01:25:03.806Z,10.93
2023-10-29T01:30:05.570Z,11.01
2023-10-29T01:35:08.471Z,11.04
2023-10-29T01:40:10.175Z,11.06
2023-10-29T01:45:12.865Z,11.14
2023-10-29T01:50:16.056Z,11.22
2023-10-29T01:55:17.012Z,11.32
2023-10-29T02:00:19.213Z,11.37
2023-10-29T02:05:21.421Z,11.35
2023-10-29T02:10:23.172Z,11.37
2023-10-29T02:15:23.956Z,11.36
2023-10-29T02:20:26.118Z,11.48
2023-10-29T02:25:28.376Z,11.52
2023-10-29T02:30:29.229Z,11.53
2023-10-29T02:35:30.078Z,11.56
2023-10-29T02:40:32.252Z,11.55
2023-10-29T02:45:34.077Z,11.54
2023-10-29T02:50:34.936Z,11.57
2023-10-29T02:55:37.131Z,11.56
2023-10-29T03:00:37.931Z,11.54
2023-10-29T03:05:50.533Z,11.55
2023-10-29T03:10:58.624Z,11.49
2023-10-29T03:15:59.470Z,11.41
2023-10-29T03:21:00.424Z,11.47
2023-10-29T03:26:05.566Z,11.50
2023-10-29T03:31:12.785Z,11.52
2023-10-29T03:36:14.077Z,11.56
2023-10-29T03:41:23.376Z,11.61
2023-10-29T03:46:24.273Z,11.65
2023-10-29T03:51:26.544Z,11.67
2023-10-29T03:56:28.790Z,11.60
2023-10-29T04:01:29.643Z,11.60
2023-10-29T04:06:30.504Z,11.70
2023-10-29T04:11:32.725Z,11.76
2023-10-29T04:16:34.462Z,11.73
2023-10-29T04:21:35.382Z,11.80
2023-10-29T04:26:37.517Z,11.78
2023-10-29T04:31:38.342Z,11.76
2023-10-29T04:36:40.336Z,11.82
2023-10-29T04:41:42.596Z,11.80
2023-10-29T04:46:43.394Z,11.82
2023-10-29T04:51:44.201Z,11.90
2023-10-29T04:56:46.374Z,11.91
2023-10-29T05:01:47.326Z,11.83
2023-10-29T05:06:48.117Z,11.90
2023-10-29T05:11:50.399Z,11.96
2023-10-29T05:16:51.238Z,11.94
2023-10-29T05:21:52.117Z,11.98
2023-10-29T05:26:54.311Z,12.07
2023-10-29T05:31:55.307Z,12.15
2023-10-29T05:36:56.082Z,12.20
2023-10-29T05:41:58.229Z,12.25
2023-10-29T05:46:59.063Z,12.36
2023-10-29T05:51:59.836Z,12.48
2023-10-29T05:57:01.957Z,12.43
2023-10-29T06:02:02.787Z,12.49
2023-10-29T06:07:03.593Z,12.55
2023-10-29T06:12:06.620Z,12.56
2023-10-29T06:17:23.337Z,12.80
2023-10-29T06:22:27.317Z,12.76
2023-10-29T06:27:29.429Z,12.84
2023-10-29T06:32:30.240Z,12.84
2023-10-29T06:37:31.216Z,12.87
2023-10-29T06:42:33.348Z,13.01
2023-10-29T06:47:34.384Z,13.04
2023-10-29T06:52:35.229Z,13.17
2023-10-29T06:57:37.602Z,13.14
2023-10-29T07:02:38.657Z,13.24
2023-10-29T07:07:39.738Z,13.30
2023-10-29T07:12:42.327Z,13.31
2023-10-29T07:17:44.785Z,13.32
2023-10-29T07:22:45.656Z,13.41
2023-10-29T07:27:51.010Z,13.76
2023-10-29T07:32:52.232Z,13.90
2023-10-29T07:37:53.055Z,13.91
2023-10-29T07:42:55.163Z,13.82
2023-10-29T07:47:56.016Z,13.89
2023-10-29T07:52:57.595Z,14.24
2023-10-29T07:57:59.752Z,14.67
2023-10-29T08:03:00.619Z,14.72
2023-10-29T08:08:02.601Z,14.46
2023-10-29T08:13:06.994Z,14.39
2023-10-29T08:18:08.244Z,14.33
2023-10-29T08:23:09.368Z,14.29
2023-10-29T08:28:11.497Z,14.43
2023-10-29T08:33:12.319Z,14.12
2023-10-29T08:38:13.243Z,14.14
2023-10-29T08:43:15.395Z,13.85
2023-10-29T08:48:17.475Z,14.07
2023-10-29T08:53:18.308Z,14.25
2023-10-29T08:58:21.927Z,14.29
2023-10-29T09:03:22.885Z,14.33
2023-10-29T09:08:23.750Z,14.34
2023-10-29T09:13:25.874Z,14.28
2023-10-29T09:18:26.860Z,14.16
2023-10-29T09:23:28.445Z,14.35
2023-10-29T09:28:30.633Z,14.36
2023-10-29T09:33:31.461Z,14.67
2023-10-29T09:38:32.259Z,14.80
2023-10-29T09:43:42.452Z,14.70
2023-10-29T09:48:45.588Z,14.82
2023-10-29T09:53:47.593Z,14.98
2023-10-29T09:58:49.843Z,15.26
2023-10-29T10:03:50.805Z,15.40
2023-10-29T10:08:58.879Z,15.27
2023-10-29T10:14:01.087Z,15.65
2023-10-29T10:19:02.468Z,16.01
2023-10-29T10:24:03.413Z,16.04
2023-10-29T10:29:07.399Z,15.98
2023-10-29T10:34:12.615Z,15.62
2023-10-29T10:39:13.963Z,15.45
2023-10-29T10:44:17.182Z,15.35
2023-10-29T10:49:19.103Z,15.22
2023-10-29T10:54:20.455Z,15.21
2023-10-29T10:59:23.205Z,15.03
2023-10-29T11:04:27.661Z,15.04
2023-10-29T11:09:29.840Z,14.93
2023-10-29T11:14:32.035Z,15.21
2023-10-29T11:19:47.325Z,15.44
2023-10-29T11:25:40.566Z,15.71
2023-10-29T11:30:42.849Z,15.66
2023-10-29T11:35:44.517Z,15.71
2023-10-29T11:40:47.333Z,15.80
2023-10-29T11:45:57.611Z,15.85
2023-10-29T11:51:20.660Z,15.87
2023-10-29T11:56:32.559Z,15.72
2023-10-29T12:01:34.868Z,15.58
2023-10-29T12:06:40.289Z,15.58
2023-10-29T12:11:41.332Z,15.45
2023-10-29T12:16:44.006Z,15.49
2023-10-29T12:21:53.044Z,15.40
2023-10-29T12:26:54.173Z,15.37
2023-10-29T12:31:56.361Z,15.28
2023-10-29T12:36:57.927Z,15.20
2023-10-29T12:41:59.093Z,15.09
2023-10-29T12:47:01.623Z,15.12
2023-10-29T12:52:03.722Z,15.20
2023-10-29T12:57:13.150Z,15.27
2023-10-29T13:02:24.552Z,15.21
2023-10-29T13:07:25.658Z,15.09
2023-10-29T13:12:29.181Z,15.06
2023-10-29T13:17:31.743Z,14.84
2023-10-29T13:22:32.742Z,14.94
2023-10-29T13:27:33.590Z,14.98
2023-10-29T13:32:36.207Z,14.97
2023-10-29T13:37:38.466Z,14.99
2023-10-29T13:42:39.730Z,14.97
2023-10-29T13:47:42.040Z,14.96
2023-10-29T13:52:43.121Z,14.92
2023-10-29T13:57:44.017Z,14.92
2023-10-29T14:02:46.350Z,14.86
2023-10-29T14:07:47.317Z,14.80
2023-10-29T14:12:48.193Z,14.77
2023-10-29T14:17:54.486Z,14.63
2023-10-29T14:22:55.567Z,14.59
2023-10-29T14:27:56.658Z,14.65
2023-10-29T14:32:58.797Z,14.72
2023-10-29T14:37:59.658Z,14.98
2023-10-29T14:43:20.292Z,15.12
2023-10-29T14:48:22.691Z,15.10
2023-10-29T14:53:25.506Z,15.01
2023-10-29T14:58:26.406Z,15.05
2023-10-29T15:03:28.934Z,14.97
2023-10-29T15:08:29.882Z,14.97
2023-10-29T15:13:30.769Z,14.89
2023-10-29T15:18:33.141Z,14.63
2023-10-29T15:23:33.992Z,14.61
2023-10-29T15:28:34.815Z,14.52
2023-10-29T15:33:36.971Z,14.49
2023-10-29T15:38:38.444Z,14.49
2023-10-29T15:43:41.569Z,14.46
2023-10-29T15:48:43.703Z,14.46
2023-10-29T15:53:45.753Z,14.32
2023-10-29T15:58:47.017Z,14.29
2023-10-29T16:03:49.658Z,14.24
2023-10-29T16:08:50.473Z,14.25
2023-10-29T16:13:51.341Z,14.35
2023-10-29T16:18:54.096Z,14.32
2023-10-29T16:23:54.951Z,14.26
2023-10-29T16:28:55.771Z,14.28
2023-10-29T16:33:58.053Z,14.25
2023-10-29T16:38:58.942Z,14.15
2023-10-29T16:44:02.207Z,13.99
2023-10-29T16:49:04.711Z,13.95
2023-10-29T16:54:06.387Z,13.91
2023-10-29T16:59:07.335Z,13.94
2023-10-29T17:04:09.505Z,14.05
2023-10-29T17:09:10.355Z,14.09
2023-10-29T17:14:15.459Z,14.14
2023-10-29T17:19:17.614Z,14.12
2023-10-29T17:24:18.499Z,14.14
2023-10-29T17:29:19.368Z,14.19
2023-10-29T17:34:21.495Z,14.30
2023-10-29T17:39:26.037Z,14.27
2023-10-29T17:44:26.947Z,14.34
2023-10-29T17:49:29.110Z,14.32
2023-10-29T17:54:30.095Z,14.38
2023-10-29T17:59:31.335Z,14.46
2023-10-29T18:04:33.487Z,14.50
2023-10-29T18:09:34.356Z,14.47
2023-10-29T18:14:35.934Z,14.43
2023-10-29T18:19:38.221Z,14.47
2023-10-29T18:24:39.037Z,14.41
2023-10-29T18:29:39.930Z,14.30
2023-10-29T18:34:43.600Z,14.31
2023-10-29T18:39:44.420Z,14.38
2023-10-29T18:44:45.250Z,14.35
2023-10-29T18:49:47.569Z,14.36
2023-10-29T18:54:48.670Z,14.30
2023-10-29T18:59:49.578Z,14.33
2023-10-29T19:04:51.965Z,14.32
2023-10-29T19:09:52.855Z,14.33
2023-10-29T19:14:53.765Z,14.32
2023-10-29T19:19:56.006Z,14.31
2023-10-29T19:24:57.063Z,14.31
2023-10-29T19:29:57.942Z,14.25
2023-10-29T19:35:00.929Z,14.34
2023-10-29T19:40:03.943Z,14.03
2023-10-29T19:45:05.062Z,14.04
2023-10-29T19:50:08.876Z,13.89
2023-10-29T19:55:14.356Z,13.84
2023-10-29T20:00:18.632Z,13.90
2023-10-29T20:05:20.873Z,13.76
2023-10-29T20:10:22.121Z,13.85
2023-10-29T20:15:26.387Z,14.09
2023-10-29T20:20:29.462Z,14.11
2023-10-29T20:25:30.549Z,13.99
2023-10-29T20:30:31.569Z,13.97
2023-10-29T20:35:34.372Z,14.02
2023-10-29T20:40:35.204Z,13.98
2023-10-29T20:45:36.977Z,14.14
2023-10-29T20:50:39.379Z,14.33
2023-10-29T20:55:41.521Z,14.08
2023-10-29T21:00:44.263Z,13.93
2023-10-29T21:05:47.478Z,13.84
2023-10-29T21:10:48.357Z,13.84
2023-10-29T21:15:49.342Z,13.91
2023-10-29T21:20:51.591Z,13.82
2023-10-29T21:25:55.619Z,13.68
2023-10-29T21:30:56.473Z,13.68
2023-10-29T21:35:58.650Z,13.72
2023-10-29T21:41:04.264Z,13.91
2023-10-29T21:46:06.468Z,13.88
2023-10-29T21:51:08.738Z,13.87
2023-10-29T21:56:10.063Z,13.67
2023-10-29T22:01:12.820Z,13.54
2023-10-29T22:06:15.106Z,13.41
2023-10-29T22:11:15.978Z,13.29
2023-10-29T22:16:16.889Z,13.18
2023-10-29T22:21:19.057Z,13.07
2023-10-29T22:26:19.816Z,12.88
2023-10-29T22:31:20.608Z,12.79
2023-10-29T22:36:22.857Z,12.75
2023-10-29T22:41:23.846Z,12.73
2023-10-29T22:46:25.035Z,12.67
2023-10-29T22:51:27.276Z,12.66
2023-10-29T22:56:28.104Z,12.56
2023-10-29T23:01:29.083Z,12.58
2023-10-29T23:06:31.262Z,12.55
2023-10-29T23:11:32.075Z,12.52
2023-10-29T23:16:32.905Z,12.55
2023-10-29T23:21:35.047Z,12.49
2023-10-29T23:26:35.897Z,12.51
2023-10-29T23:31:36.855Z,12.52
2023-10-29T23:36:39.060Z,12.49
2023-10-29T23:41:39.884Z,12.56
2023-10-29T23:46:40.692Z,12.60
2023-10-29T23:51:42.942Z,12.68
2023-10-29T23:56:43.762Z,12.67
